createdAt,value
2022-10-17T00:01:01.930Z,4.22
2022-10-17T00:03:28.639Z,5.35
2022-10-17T00:05:55.573Z,5.70
2022-10-17T00:08:22.404Z,5.82
2022-10-17T00:10:59.120Z,5.30
2022-10-17T00:13:26.722Z,5.38
2022-10-17T00:15:53.677Z,5.13
2022-10-17T00:18:20.634Z,5.40
2022-10-17T00:20:47.336Z,5.20
2022-10-17T00:23:14.077Z,4.90
2022-10-17T00:25:40.758Z,5.40
2022-10-17T00:28:12.434Z,5.30
2022-10-17T00:30:39.678Z,6.13
2022-10-17T00:33:06.884Z,4.97
2022-10-17T00:35:33.600Z,6.03
2022-10-17T00:38:00.285Z,5.20
2022-10-17T00:40:27.051Z,5.70
2022-10-17T00:42:53.789Z,5.78
2022-10-17T00:45:31.427Z,5.10
2022-10-17T00:48:08.408Z,5.47
2022-10-17T00:50:39.178Z,5.68
2022-10-17T00:53:07.976Z,5.82
2022-10-17T00:55:44.433Z,5.60
2022-10-17T00:58:11.393Z,5.63
2022-10-17T01:00:38.258Z,5.68
2022-10-17T01:03:05.152Z,6.13
2022-10-17T01:05:32.115Z,5.53
2022-10-17T01:07:58.894Z,5.28
2022-10-17T01:10:50.302Z,5.60
2022-10-17T01:13:31.164Z,5.80
2022-10-17T01:16:17.000Z,6.20
2022-10-17T01:19:01.827Z,6.07
2022-10-17T01:21:51.653Z,6.03
2022-10-17T01:24:33.972Z,6.50
2022-10-17T01:27:52.560Z,6.05
2022-10-17T01:30:50.244Z,5.68
2022-10-17T01:33:57.583Z,6.55
2022-10-17T01:36:57.054Z,5.63
2022-10-17T01:39:41.656Z,5.47
2022-10-17T01:42:27.328Z,5.22
2022-10-17T01:45:16.970Z,5.82
2022-10-17T01:47:46.310Z,6.07
2022-10-17T01:50:24.282Z,6.13
2022-10-17T01:53:01.560Z,5.65
2022-10-17T01:55:36.324Z,6.20
2022-10-17T01:58:25.534Z,6.20
2022-10-17T02:00:53.787Z,6.15
2022-10-17T02:03:22.221Z,6.03
2022-10-17T02:05:49.134Z,6.30
2022-10-17T02:08:39.563Z,6.15
2022-10-17T02:11:18.818Z,6.55
2022-10-17T02:14:56.537Z,6.47
2022-10-17T02:18:05.147Z,6.25
2022-10-17T02:20:50.735Z,6.35
2022-10-17T02:23:33.909Z,6.40
2022-10-17T02:26:09.684Z,6.90
2022-10-17T02:28:48.026Z,7.53
2022-10-17T02:31:21.282Z,7.47
2022-10-17T02:33:59.055Z,7.00
2022-10-17T02:36:33.973Z,6.53
2022-10-17T02:39:03.641Z,6.25
2022-10-17T02:41:31.979Z,7.05
2022-10-17T02:44:01.639Z,6.88
2022-10-17T02:46:30.505Z,7.05
2022-10-17T02:49:18.769Z,7.75
2022-10-17T02:52:13.831Z,7.60
2022-10-17T02:54:51.588Z,7.68
2022-10-17T02:57:29.670Z,8.10
2022-10-17T02:59:59.592Z,7.43
2022-10-17T03:02:26.905Z,7.80
2022-10-17T03:04:53.868Z,7.40
2022-10-17T03:07:20.568Z,7.07
2022-10-17T03:09:47.250Z,7.53
2022-10-17T03:12:13.959Z,6.70
2022-10-17T03:14:40.640Z,6.78
2022-10-17T03:17:07.332Z,6.72
2022-10-17T03:19:34.030Z,6.32
2022-10-17T03:22:00.830Z,7.10
2022-10-17T03:24:27.528Z,6.75
2022-10-17T03:26:54.208Z,6.45
2022-10-17T03:29:20.921Z,6.65
2022-10-17T03:31:47.667Z,6.82
2022-10-17T03:34:16.650Z,6.45
2022-10-17T03:36:43.594Z,6.85
2022-10-17T03:39:10.721Z,6.38
2022-10-17T03:41:37.416Z,6.82
2022-10-17T03:44:04.423Z,6.68
2022-10-17T03:46:31.190Z,6.90
2022-10-17T03:48:57.896Z,6.75
2022-10-17T03:51:24.672Z,6.78
2022-10-17T03:53:51.586Z,7.32
2022-10-17T03:56:22.737Z,7.05
2022-10-17T03:58:49.806Z,6.72
2022-10-17T04:01:18.580Z,7.32
2022-10-17T04:03:53.285Z,6.65
2022-10-17T04:06:21.075Z,6.85
2022-10-17T04:08:48.661Z,7.82
2022-10-17T04:11:19.492Z,7.50
2022-10-17T04:13:46.517Z,7.60
2022-10-17T04:16:17.335Z,6.75
2022-10-17T04:18:44.615Z,7.00
2022-10-17T04:21:12.509Z,6.63
2022-10-17T04:23:40.058Z,6.60
2022-10-17T04:26:07.055Z,7.20
2022-10-17T04:28:34.375Z,6.85
2022-10-17T04:31:07.854Z,7.03
2022-10-17T04:33:35.635Z,7.30
2022-10-17T04:36:06.438Z,6.95
2022-10-17T04:38:33.529Z,7.35
2022-10-17T04:41:03.165Z,7.38
2022-10-17T04:43:40.159Z,7.18
2022-10-17T04:46:10.674Z,6.40
2022-10-17T04:48:38.567Z,6.65
2022-10-17T04:51:10.994Z,6.63
2022-10-17T04:53:42.037Z,6.35
2022-10-17T04:56:15.578Z,6.13
2022-10-17T04:58:43.841Z,6.38
2022-10-17T05:01:22.762Z,5.90
2022-10-17T05:03:50.072Z,6.68
2022-10-17T05:06:29.584Z,7.10
2022-10-17T05:08:57.909Z,7.30
2022-10-17T05:11:27.926Z,7.93
2022-10-17T05:13:57.845Z,7.30
2022-10-17T05:16:26.676Z,7.80
2022-10-17T05:18:56.534Z,7.38
2022-10-17T05:21:26.072Z,7.75
2022-10-17T05:23:53.056Z,7.75
2022-10-17T05:26:21.141Z,7.85
2022-10-17T05:28:47.863Z,7.18
2022-10-17T05:31:15.422Z,6.97
2022-10-17T05:33:42.161Z,7.45
2022-10-17T05:36:09.052Z,8.00
2022-10-17T05:38:35.802Z,7.93
2022-10-17T06:01:12.780Z,8.77
2022-10-17T06:03:39.888Z,8.90
2022-10-17T06:06:09.621Z,9.27
2022-10-17T06:08:37.001Z,8.60
2022-10-17T06:11:07.497Z,8.52
2022-10-17T06:13:36.904Z,7.75
2022-10-17T06:16:03.794Z,8.55
2022-10-17T06:18:30.527Z,8.13
2022-10-17T06:21:10.895Z,8.55
2022-10-17T06:23:37.901Z,8.05
2022-10-17T06:26:06.409Z,8.15
2022-10-17T06:28:33.724Z,7.07
2022-10-17T06:31:07.166Z,7.63
2022-10-17T06:33:34.752Z,7.38
2022-10-17T06:36:02.133Z,7.85
2022-10-17T06:38:29.031Z,7.78
2022-10-17T06:41:09.949Z,7.10
2022-10-17T06:43:38.046Z,7.63
2022-10-17T06:46:05.952Z,6.78
2022-10-17T06:48:33.189Z,7.25
2022-10-17T06:51:01.364Z,7.18
2022-10-17T06:53:29.610Z,6.88
2022-10-17T06:56:01.150Z,6.85
2022-10-17T06:58:30.037Z,7.20
2022-10-17T07:01:02.402Z,7.00
2022-10-17T07:03:29.913Z,7.35
2022-10-17T07:05:57.939Z,7.13
2022-10-17T07:08:25.501Z,6.93
2022-10-17T07:10:52.764Z,6.78
2022-10-17T07:13:19.922Z,6.20
2022-10-17T07:15:47.213Z,6.28
2022-10-17T07:18:14.382Z,6.47
2022-10-17T07:20:41.259Z,6.15
2022-10-17T07:23:08.071Z,6.05
2022-10-17T07:25:37.820Z,5.63
2022-10-17T07:28:06.861Z,5.47
2022-10-17T07:30:33.677Z,5.70
2022-10-17T07:33:00.367Z,4.93
2022-10-17T07:35:27.079Z,5.25
2022-10-17T07:37:53.811Z,4.60
2022-10-17T07:40:20.585Z,4.50
2022-10-17T07:42:47.305Z,5.13
2022-10-17T07:45:15.542Z,4.60
2022-10-17T07:47:42.323Z,5.03
2022-10-17T07:50:09.473Z,4.40
2022-10-17T07:52:36.216Z,3.85
2022-10-17T07:55:03.045Z,4.38
2022-10-17T07:57:29.713Z,4.65
2022-10-17T07:59:56.607Z,4.35
2022-10-17T08:02:26.339Z,4.13
2022-10-17T08:04:53.822Z,4.65
2022-10-17T08:07:25.511Z,4.03
2022-10-17T08:09:55.280Z,4.05
2022-10-17T08:12:22.147Z,3.78
2022-10-17T08:14:49.070Z,3.28
2022-10-17T08:17:15.761Z,3.10
2022-10-17T08:19:42.490Z,3.10
2022-10-17T08:22:09.498Z,2.80
2022-10-17T08:24:36.396Z,3.03
2022-10-17T08:27:03.875Z,3.67
2022-10-17T08:29:32.749Z,3.58
2022-10-17T08:32:01.223Z,3.70
2022-10-17T08:34:29.187Z,3.25
2022-10-17T08:36:55.871Z,3.72
2022-10-17T08:39:22.670Z,3.60
2022-10-17T08:42:20.371Z,3.78
2022-10-17T08:45:15.029Z,3.50
2022-10-17T08:47:49.653Z,3.40
2022-10-17T08:50:42.843Z,3.45
2022-10-17T08:53:33.431Z,2.92
2022-10-17T08:56:47.945Z,3.17
2022-10-17T08:59:21.900Z,3.55
2022-10-17T09:01:57.520Z,3.40
2022-10-17T09:04:57.328Z,3.78
2022-10-17T09:07:48.620Z,4.07
2022-10-17T09:10:36.145Z,3.47
2022-10-17T09:13:33.983Z,3.65
2022-10-17T09:16:23.153Z,3.50
2022-10-17T09:19:18.496Z,3.30
2022-10-17T09:22:01.032Z,3.33
2022-10-17T09:24:41.315Z,3.33
2022-10-17T09:27:26.778Z,4.20
2022-10-17T09:30:26.865Z,3.28
2022-10-17T09:33:00.580Z,3.63
2022-10-17T09:35:30.146Z,3.38
2022-10-17T09:37:57.981Z,3.60
2022-10-17T09:40:33.105Z,3.58
2022-10-17T09:43:02.914Z,3.60
2022-10-17T09:45:33.611Z,3.35
2022-10-17T09:48:24.389Z,2.90
2022-10-17T09:50:57.925Z,3.00
2022-10-17T09:53:40.113Z,2.80
2022-10-17T09:56:17.440Z,2.90
2022-10-17T09:58:49.985Z,2.72
2022-10-17T10:01:31.155Z,2.70
2022-10-17T10:04:16.573Z,2.58
2022-10-17T10:07:05.835Z,2.92
2022-10-17T10:09:36.894Z,2.13
2022-10-17T10:12:20.356Z,2.35
2022-10-17T10:14:47.913Z,2.58
2022-10-17T10:17:41.828Z,2.50
2022-10-17T10:20:33.126Z,2.50
2022-10-17T10:23:13.411Z,2.60
2022-10-17T10:25:57.362Z,2.65
2022-10-17T10:28:34.773Z,2.78
2022-10-17T10:31:07.282Z,2.40
2022-10-17T10:33:41.692Z,2.47
2022-10-17T10:36:09.071Z,2.30
2022-10-17T10:38:39.315Z,2.67
2022-10-17T10:41:09.722Z,2.20
2022-10-17T10:43:45.095Z,2.55
2022-10-17T10:46:23.211Z,2.60
2022-10-17T10:48:58.465Z,2.42
2022-10-17T10:51:42.271Z,2.47
2022-10-17T10:54:22.203Z,2.30
2022-10-17T10:57:00.153Z,2.78
2022-10-17T11:00:09.234Z,2.88
2022-10-17T11:02:49.850Z,2.80
2022-10-17T11:05:41.804Z,3.13
2022-10-17T11:08:23.757Z,2.80
2022-10-17T11:11:26.105Z,3.30
2022-10-17T11:14:19.756Z,2.90
2022-10-17T11:16:56.237Z,2.50
2022-10-17T11:19:36.534Z,3.00
2022-10-17T11:22:18.039Z,2.70
2022-10-17T11:25:05.251Z,2.70
2022-10-17T11:27:33.942Z,3.03
2022-10-17T11:30:01.099Z,3.03
2022-10-17T11:32:53.990Z,3.00
2022-10-17T11:35:34.196Z,2.45
2022-10-17T11:38:38.168Z,2.80
2022-10-17T11:41:06.679Z,3.28
2022-10-17T11:43:54.752Z,2.95
2022-10-17T11:46:28.330Z,3.30
2022-10-17T11:49:17.449Z,2.95
2022-10-17T11:52:03.660Z,3.03
2022-10-17T11:54:38.889Z,2.75
2022-10-17T11:57:56.515Z,3.05
2022-10-17T12:00:56.750Z,3.00
2022-10-17T12:03:35.016Z,3.03
2022-10-17T12:06:31.923Z,2.70
2022-10-17T12:09:38.386Z,3.05
2022-10-17T12:12:05.484Z,2.65
2022-10-17T12:14:43.275Z,2.80
2022-10-17T12:17:38.988Z,3.08
2022-10-17T12:20:21.337Z,2.90
2022-10-17T12:22:51.287Z,3.08
2022-10-17T12:25:32.619Z,3.25
2022-10-17T12:28:43.845Z,3.47
2022-10-17T12:31:29.613Z,2.80
2022-10-17T12:34:04.944Z,2.72
2022-10-17T12:36:31.547Z,2.38
2022-10-17T12:39:03.986Z,2.67
2022-10-17T12:41:39.785Z,3.25
2022-10-17T12:44:21.301Z,2.60
2022-10-17T12:46:51.986Z,2.45
2022-10-17T12:49:45.505Z,3.00
2022-10-17T12:52:31.902Z,2.80
2022-10-17T12:55:14.001Z,2.15
2022-10-17T12:57:55.380Z,2.40
2022-10-17T13:00:37.866Z,2.72
2022-10-17T13:03:33.894Z,2.60
2022-10-17T13:06:06.577Z,2.70
2022-10-17T13:08:41.208Z,2.95
2022-10-17T13:11:09.168Z,2.95
2022-10-17T13:13:52.572Z,2.92
2022-10-17T13:16:33.186Z,2.58
2022-10-17T13:19:01.925Z,2.60
2022-10-17T13:21:28.976Z,2.75
2022-10-17T13:23:56.261Z,3.00
2022-10-17T13:26:28.584Z,3.00
2022-10-17T13:29:14.180Z,2.80
2022-10-17T13:31:44.125Z,2.70
2022-10-17T13:34:19.175Z,2.88
2022-10-17T13:36:56.627Z,2.80
2022-10-17T13:39:45.211Z,2.88
2022-10-17T13:42:40.628Z,2.88
2022-10-17T13:45:30.441Z,2.78
2022-10-17T13:48:01.975Z,2.83
2022-10-17T13:53:33.420Z,2.78
2022-10-17T14:01:29.285Z,3.40
2022-10-17T14:04:07.958Z,3.13
2022-10-17T14:06:45.167Z,3.30
2022-10-17T14:09:26.466Z,2.67
2022-10-17T14:12:16.452Z,2.95
2022-10-17T14:17:38.510Z,2.60
2022-10-17T14:20:40.863Z,2.45
2022-10-17T14:23:20.971Z,3.05
2022-10-17T14:25:42.885Z,3.17
2022-10-17T14:28:13.760Z,3.25
2022-10-17T14:30:56.696Z,2.97
2022-10-17T14:33:30.017Z,2.63
2022-10-17T14:35:59.548Z,3.00
2022-10-17T14:38:27.984Z,3.10
2022-10-17T14:41:37.442Z,3.38
2022-10-17T14:44:02.388Z,3.05
2022-10-17T14:46:29.329Z,3.03
2022-10-17T14:49:14.273Z,3.42
2022-10-17T14:51:50.671Z,3.47
2022-10-17T14:54:32.549Z,3.25
2022-10-17T14:56:59.245Z,4.00
2022-10-17T14:59:52.075Z,3.78
2022-10-17T15:02:13.592Z,4.03
2022-10-17T15:04:40.626Z,3.80
2022-10-17T15:07:07.459Z,4.03
2022-10-17T15:09:34.151Z,3.92
2022-10-17T15:12:03.769Z,4.10
2022-10-17T15:14:30.689Z,3.80
2022-10-17T15:16:57.492Z,4.03
2022-10-17T15:19:24.192Z,3.83
2022-10-17T15:21:50.959Z,4.30
2022-10-17T15:24:17.671Z,4.55
2022-10-17T15:26:44.786Z,4.72
2022-10-17T15:29:16.011Z,3.67
2022-10-17T15:31:42.777Z,4.90
2022-10-17T15:34:09.512Z,4.43
2022-10-17T15:36:49.353Z,4.95
2022-10-17T15:39:16.628Z,5.05
2022-10-17T15:41:43.977Z,5.00
2022-10-17T15:44:10.977Z,5.18
2022-10-17T15:46:41.174Z,5.18
2022-10-17T15:49:14.000Z,4.80
2022-10-17T15:51:42.155Z,5.13
2022-10-17T15:54:09.329Z,4.65
2022-10-17T15:56:42.560Z,5.18
2022-10-17T15:59:20.097Z,5.30
2022-10-17T16:01:48.563Z,4.05
2022-10-17T16:04:15.826Z,4.20
2022-10-17T16:06:43.523Z,3.90
2022-10-17T16:09:10.343Z,4.43
2022-10-17T16:11:42.043Z,4.20
2022-10-17T16:16:43.646Z,3.72
2022-10-17T16:19:10.371Z,3.60
2022-10-17T16:21:40.417Z,3.72
2022-10-17T16:24:11.933Z,3.72
2022-10-17T16:26:41.647Z,3.75
2022-10-17T16:29:09.921Z,3.30
2022-10-17T16:31:41.560Z,3.42
2022-10-17T16:34:09.954Z,4.07
2022-10-17T16:36:36.710Z,3.67
2022-10-17T16:39:03.489Z,4.10
2022-10-17T16:41:34.713Z,4.95
2022-10-17T16:44:04.775Z,5.15
2022-10-17T16:46:33.257Z,4.65
2022-10-17T16:49:00.145Z,4.28
2022-10-17T16:51:29.026Z,4.47
2022-10-17T16:53:56.943Z,4.60
2022-10-17T16:56:24.844Z,4.85
2022-10-17T16:58:51.814Z,5.03
2022-10-17T17:01:23.024Z,5.20
2022-10-17T17:03:51.206Z,4.85
2022-10-17T17:06:26.280Z,5.00
2022-10-17T17:08:54.475Z,5.40
2022-10-17T17:11:24.547Z,5.38
2022-10-17T17:13:51.520Z,5.38
2022-10-17T17:16:21.487Z,5.20
2022-10-17T17:18:51.325Z,5.35
2022-10-17T17:21:18.065Z,5.25
2022-10-17T17:23:45.036Z,6.13
2022-10-17T17:26:19.064Z,5.15
2022-10-17T17:28:46.804Z,5.30
2022-10-17T17:31:22.136Z,5.03
2022-10-17T17:33:50.682Z,4.85
2022-10-17T17:36:21.382Z,5.00
2022-10-17T17:38:49.242Z,4.60
2022-10-17T17:41:18.860Z,4.40
2022-10-17T17:43:47.371Z,4.75
2022-10-17T17:46:18.023Z,4.38
2022-10-17T17:48:46.795Z,4.57
2022-10-17T17:51:28.429Z,3.88
2022-10-17T17:53:57.238Z,3.70
2022-10-17T17:56:28.348Z,3.92
2022-10-17T17:58:59.516Z,3.60
2022-10-17T18:01:30.834Z,3.28
2022-10-17T18:03:59.022Z,3.30
2022-10-17T18:06:27.733Z,3.60
2022-10-17T18:08:57.986Z,3.30
2022-10-17T18:11:27.095Z,3.40
2022-10-17T18:14:00.150Z,3.40
2022-10-17T18:16:28.570Z,3.10
2022-10-17T18:18:55.555Z,3.00
2022-10-17T18:21:22.466Z,3.42
2022-10-17T18:23:50.349Z,2.70
2022-10-17T18:26:17.503Z,3.13
2022-10-17T18:28:44.873Z,2.72
2022-10-17T18:31:15.472Z,2.78
2022-10-17T18:33:45.338Z,2.83
2022-10-17T18:36:14.562Z,3.13
2022-10-17T18:38:41.975Z,2.88
2022-10-17T18:41:16.684Z,2.47
2022-10-17T18:43:45.536Z,3.05
2022-10-17T18:46:23.489Z,2.67
2022-10-17T18:48:51.143Z,2.70
2022-10-17T18:51:21.682Z,2.10
2022-10-17T18:53:52.005Z,2.70
2022-10-17T18:56:20.266Z,2.60
2022-10-17T18:58:47.275Z,2.42
2022-10-17T19:01:18.043Z,2.42
2022-10-17T19:03:47.443Z,2.75
2022-10-17T19:06:20.778Z,2.40
2022-10-17T19:08:48.084Z,2.30
2022-10-17T19:11:19.180Z,2.60
2022-10-17T19:13:46.974Z,2.35
2022-10-17T19:16:19.308Z,2.55
2022-10-17T19:18:59.140Z,2.63
2022-10-17T19:21:26.492Z,2.50
2022-10-17T19:23:58.843Z,2.75
2022-10-17T19:26:29.362Z,2.63
2022-10-17T19:28:56.952Z,2.70
2022-10-17T19:31:27.251Z,2.47
2022-10-17T19:33:55.986Z,2.38
2022-10-17T19:36:30.422Z,2.60
2022-10-17T19:39:03.825Z,2.50
2022-10-17T19:41:30.763Z,2.90
2022-10-17T19:43:59.708Z,2.17
2022-10-17T19:46:28.602Z,2.47
2022-10-17T19:48:55.922Z,2.50
2022-10-17T19:51:25.039Z,2.00
2022-10-17T19:53:53.956Z,2.20
2022-10-17T19:56:22.802Z,1.98
2022-10-17T19:58:50.614Z,2.22
2022-10-17T20:01:24.461Z,1.85
2022-10-17T20:03:52.223Z,1.90
2022-10-17T20:06:19.488Z,2.05
2022-10-17T20:08:46.236Z,1.75
2022-10-17T20:11:24.671Z,1.75
2022-10-17T20:13:52.918Z,1.80
2022-10-17T20:16:23.484Z,1.50
2022-10-17T20:18:55.508Z,1.75
2022-10-17T20:21:27.306Z,1.55
2022-10-17T20:26:37.119Z,1.60
2022-10-17T20:29:17.743Z,1.80
2022-10-17T20:31:46.234Z,2.20
2022-10-17T20:34:15.664Z,2.03
2022-10-17T20:36:43.297Z,1.80
2022-10-17T20:39:13.353Z,1.80
2022-10-17T20:41:41.091Z,1.77
2022-10-17T20:44:08.250Z,1.90
2022-10-17T20:46:37.841Z,1.60
2022-10-17T20:49:13.605Z,1.70
2022-10-17T20:51:40.546Z,1.75
2022-10-17T20:54:07.247Z,1.90
2022-10-17T20:56:35.077Z,2.20
2022-10-17T20:59:05.801Z,1.83
2022-10-17T21:01:35.208Z,1.70
2022-10-17T21:04:21.374Z,1.60
2022-10-17T21:06:51.248Z,1.70
2022-10-17T21:09:18.436Z,1.67
2022-10-17T21:11:45.227Z,1.40
2022-10-17T21:14:12.582Z,1.50
2022-10-17T21:16:41.155Z,1.42
2022-10-17T21:19:09.072Z,1.48
2022-10-17T21:21:40.283Z,1.77
2022-10-17T21:24:14.255Z,1.50
2022-10-17T21:26:42.623Z,1.48
2022-10-17T21:29:12.038Z,1.60
2022-10-17T21:31:41.664Z,1.58
2022-10-17T21:34:24.436Z,1.63
2022-10-17T21:36:51.919Z,1.65
2022-10-17T21:39:18.918Z,1.65
2022-10-17T21:41:45.887Z,1.30
2022-10-17T21:44:18.865Z,1.50
2022-10-17T21:46:46.804Z,1.80
2022-10-17T21:49:16.675Z,1.70
2022-10-17T21:51:44.634Z,1.40
2022-10-17T21:54:11.640Z,1.58
2022-10-17T21:56:38.350Z,1.80
2022-10-17T21:59:05.483Z,1.60
2022-10-17T22:01:39.531Z,1.40
2022-10-17T22:04:10.831Z,1.38
2022-10-17T22:06:41.074Z,1.40
2022-10-17T22:09:22.893Z,1.70
2022-10-17T22:11:53.597Z,1.50
2022-10-17T22:14:22.900Z,1.58
2022-10-17T22:16:50.005Z,1.80
2022-10-17T22:19:24.855Z,3.25
2022-10-17T22:21:52.132Z,2.22
2022-10-17T22:26:48.733Z,1.88
2022-10-17T22:29:15.827Z,1.92
2022-10-17T22:31:42.964Z,2.15
2022-10-17T22:34:12.616Z,2.03
2022-10-17T22:36:39.373Z,2.03
2022-10-17T22:39:06.216Z,2.30
2022-10-17T22:41:33.126Z,1.70
2022-10-17T22:43:59.930Z,1.95
2022-10-17T22:46:26.874Z,2.58
2022-10-17T22:48:53.999Z,2.28
2022-10-17T22:51:20.831Z,2.03
2022-10-17T22:53:47.604Z,2.63
2022-10-17T22:56:19.844Z,2.10
2022-10-17T22:58:47.037Z,2.10
2022-10-17T23:01:21.522Z,2.20
2022-10-17T23:03:48.924Z,2.00
2022-10-17T23:06:15.995Z,2.30
2022-10-17T23:08:43.250Z,2.33
2022-10-17T23:11:10.245Z,2.20
2022-10-17T23:13:37.607Z,1.95
2022-10-17T23:16:04.751Z,2.20
2022-10-17T23:21:03.350Z,2.30
2022-10-17T23:23:30.056Z,2.47
2022-10-17T23:26:05.464Z,2.88
2022-10-17T23:28:33.542Z,2.30
2022-10-17T23:31:15.277Z,2.50
2022-10-17T23:33:44.700Z,3.10
2022-10-17T23:36:14.124Z,3.10
2022-10-17T23:38:42.520Z,2.95
2022-10-17T23:41:09.552Z,3.30
2022-10-17T23:43:36.327Z,3.28
2022-10-17T23:46:05.330Z,3.40
2022-10-17T23:48:32.151Z,3.28
2022-10-17T23:50:58.943Z,3.58
2022-10-17T23:53:26.279Z,3.33
2022-10-17T23:55:53.290Z,3.22
2022-10-17T23:58:20.041Z,2.60
